ΕΜΥ, Εθνική Μετεωρολογική Υπηρεσία - Δελτία Καιρού, Προγνώσεις

ΑΕΡΟΝΑΥΤΙΛΙΑ

GREEK AIRPORTS CODES

LGPA 241450Z 06006KT 9999 BKN015 FEW018TCU BKN035 03/00 Q1016 RMK HAND WIND ANEMOMETER OBSERVATION=

EUROPEAN AIRPORTS CODES

LFPO 241700Z 13003KT CAVOK 05/01 Q1031 NOSIG=